Terminal Aerodrome Forecast
Issued by NWS

Home | Current Version | Previous Version | Text Only | Print | Product List | Glossary Off
Versions: 1 2 3 4 5 6 7 8 9 10 11 12 13 14 15 16 17 18

351
FTUS43 KBIS 051348 AAA
TAFDIK
TAF AMD
KDIK 051348Z 0514/0612 31009KT P6SM SCT006 BKN070
      TEMPO 0514/0516 BKN006
     FM051700 29011KT P6SM SCT100
     FM052200 26011KT P6SM FEW250=

USA.gov is the U.S. government's official web portal to all federal, state and local government web resources and services.